This is the latest recevied weather packets stored in our database for station/object VK5TRM-14. If no packets are shown the sender has not sent any weather packets the latest 10 day(s).
| Time | Temp. | Humidity | Pressure | Rain* | Wind** | Luminosity | Snow |
|---|---|---|---|---|---|---|---|
| 1777772705 | 17.78° C | 48% | 1013.4 hPa | 0 mm | - | - | - |
| 1777771805 | 17.78° C | 53% | 1013.6 hPa | 0 mm | - | - | - |
| 1777770906 | 17.78° C | 53% | 1013.6 hPa | 0 mm | - | - | - |
| 1777770005 | 16.67° C | 60% | 1013.7 hPa | 0 mm | - | - | - |
| 1777769105 | 16.67° C | 60% | 1013.7 hPa | 0 mm | - | - | - |
| 1777768205 | 16.11° C | 64% | 1013.6 hPa | 0 mm | - | - | - |
| 1777767305 | 16.11° C | 64% | 1013.6 hPa | 0 mm | - | - | - |
| 1777766405 | 15.56° C | 66% | 1013.6 hPa | 12.19 mm | - | - | - |
| 1777765505 | 15.56° C | 66% | 1013.6 hPa | 12.19 mm | - | - | - |
| 1777764605 | 15° C | 67% | 1013.5 hPa | 12.19 mm | - | - | - |
| 1777763705 | 15° C | 67% | 1013.5 hPa | 12.19 mm | - | - | - |
| 1777762805 | 13.89° C | 72% | 1013.4 hPa | 12.19 mm | - | - | - |
| 1777761906 | 13.89° C | 72% | 1013.4 hPa | 12.19 mm | - | - | - |
| 1777761005 | 12.78° C | 79% | 1013 hPa | 12.19 mm | - | - | - |
| 1777760105 | 12.78° C | 79% | 1013 hPa | 12.19 mm | - | - | - |
| 1777759205 | 11.67° C | 83% | 1012.9 hPa | 12.19 mm | - | - | - |
| 1777758305 | 11.67° C | 83% | 1012.9 hPa | 12.19 mm | - | - | - |
| 1777757405 | 12.22° C | 82% | 1012.6 hPa | 12.19 mm | - | - | - |
| 1777756506 | 12.22° C | 82% | 1012.6 hPa | 12.19 mm | - | - | - |
| 1777755605 | 12.78° C | 81% | 1012.5 hPa | 12.19 mm | - | - | - |
| 1777754705 | 12.78° C | 81% | 1012.5 hPa | 12.19 mm | - | - | - |
| 1777753805 | 13.33° C | 83% | 1012.3 hPa | 12.19 mm | - | - | - |
| 1777752905 | 13.33° C | 83% | 1012.3 hPa | 12.19 mm | - | - | - |
| 1777752005 | 13.33° C | 83% | 1012.1 hPa | 12.19 mm | - | - | - |
| 1777751105 | 13.33° C | 83% | 1012.1 hPa | 12.19 mm | - | - | - |
* Rain since midnight (hover to see other rain measurements)
** Current wind speed in m/s (hover to see current wind gust speed)